sensor_id;sensor_type;location;lat;lon;timestamp;pressure;altitude;pressure_sealevel;temperature;humidity
59443;BME280;45247;47.466;19.004;2023-12-20T11:50:23;99466.22;;;2.85;100.00
59443;BME280;45247;47.466;19.004;2023-12-20T11:52:52;99443.13;;;2.99;100.00
59443;BME280;45247;47.466;19.004;2023-12-20T11:55:22;99453.34;;;3.29;100.00
59443;BME280;45247;47.466;19.004;2023-12-20T11:57:51;99457.09;;;3.45;100.00
59443;BME280;45247;47.466;19.004;2023-12-20T12:00:20;99466.06;;;3.84;100.00
59443;BME280;45247;47.466;19.004;2023-12-20T12:02:58;99437.81;;;4.37;100.00
59443;BME280;45247;47.466;19.004;2023-12-20T12:05:30;99435.28;;;5.35;100.00
59443;BME280;45247;47.466;19.004;2023-12-20T12:08:04;99437.28;;;6.05;100.00
59443;BME280;45247;47.466;19.004;2023-12-20T12:10:33;99437.41;;;6.56;100.00
59443;BME280;45247;47.466;19.004;2023-12-20T12:13:01;99427.88;;;6.88;100.00
59443;BME280;45247;47.466;19.004;2023-12-20T12:15:30;99435.31;;;7.13;100.00
59443;BME280;45247;47.466;19.004;2023-12-20T12:17:58;99438.66;;;7.16;100.00
59443;BME280;45247;47.466;19.004;2023-12-20T12:20:28;99454.63;;;7.12;100.00
59443;BME280;45247;47.466;19.004;2023-12-20T12:22:58;99423.34;;;6.91;100.00
59443;BME280;45247;47.466;19.004;2023-12-20T12:25:28;99446.47;;;7.00;100.00
59443;BME280;45247;47.466;19.004;2023-12-20T12:27:58;99452.53;;;6.85;100.00
59443;BME280;45247;47.466;19.004;2023-12-20T12:30:26;99454.50;;;6.80;100.00
59443;BME280;45247;47.466;19.004;2023-12-20T12:33:04;99441.56;;;6.60;100.00
59443;BME280;45247;47.466;19.004;2023-12-20T12:35:34;99439.25;;;6.53;100.00
59443;BME280;45247;47.466;19.004;2023-12-20T12:38:03;99439.84;;;6.41;100.00
59443;BME280;45247;47.466;19.004;2023-12-20T12:46:56;99448.06;;;6.16;100.00
59443;BME280;45247;47.466;19.004;2023-12-20T12:49:25;99453.63;;;6.10;100.00
59443;BME280;45247;47.466;19.004;2023-12-20T12:51:53;99443.16;;;5.91;100.00
59443;BME280;45247;47.466;19.004;2023-12-20T12:54:23;99449.28;;;5.92;100.00
59443;BME280;45247;47.466;19.004;2023-12-20T12:56:52;99443.09;;;5.93;100.00
59443;BME280;45247;47.466;19.004;2023-12-20T12:59:21;99444.06;;;5.90;100.00
59443;BME280;45247;47.466;19.004;2023-12-20T13:01:49;99442.25;;;5.92;100.00
59443;BME280;45247;47.466;19.004;2023-12-20T13:04:19;99443.38;;;5.87;100.00
59443;BME280;45247;47.466;19.004;2023-12-20T13:06:47;99446.56;;;5.74;100.00
59443;BME280;45247;47.466;19.004;2023-12-20T13:09:15;99440.53;;;5.72;100.00
59443;BME280;45247;47.466;19.004;2023-12-20T13:11:48;99447.53;;;5.72;100.00
59443;BME280;45247;47.466;19.004;2023-12-20T13:14:16;99436.31;;;5.70;100.00
59443;BME280;45247;47.466;19.004;2023-12-20T13:16:44;99439.69;;;5.72;100.00
59443;BME280;45247;47.466;19.004;2023-12-20T13:19:13;99442.88;;;5.60;100.00
59443;BME280;45247;47.466;19.004;2023-12-20T13:21:43;99422.94;;;5.57;100.00
59443;BME280;45247;47.466;19.004;2023-12-20T13:24:11;99429.28;;;5.51;100.00
59443;BME280;45247;47.466;19.004;2023-12-20T13:26:40;99427.59;;;5.50;100.00
59443;BME280;45247;47.466;19.004;2023-12-20T13:29:08;99421.94;;;5.41;100.00
59443;BME280;45247;47.466;19.004;2023-12-20T13:31:36;99427.19;;;5.41;100.00
59443;BME280;45247;47.466;19.004;2023-12-20T13:34:06;99426.34;;;5.40;100.00
59443;BME280;45247;47.466;19.004;2023-12-20T13:36:34;99424.78;;;5.36;100.00
59443;BME280;45247;47.466;19.004;2023-12-20T13:39:05;99436.31;;;5.32;100.00
59443;BME280;45247;47.466;19.004;2023-12-20T13:41:33;99436.94;;;5.37;100.00
59443;BME280;45247;47.466;19.004;2023-12-20T13:44:02;99426.47;;;5.37;100.00
59443;BME280;45247;47.466;19.004;2023-12-20T13:46:30;99427.53;;;5.33;100.00
59443;BME280;45247;47.466;19.004;2023-12-20T13:48:58;99443.16;;;5.35;100.00
59443;BME280;45247;47.466;19.004;2023-12-20T13:51:29;99421.38;;;5.34;100.00
59443;BME280;45247;47.466;19.004;2023-12-20T13:53:57;99423.34;;;5.29;100.00
59443;BME280;45247;47.466;19.004;2023-12-20T13:56:27;99427.59;;;5.32;100.00
59443;BME280;45247;47.466;19.004;2023-12-20T13:58:55;99432.03;;;5.30;100.00
59443;BME280;45247;47.466;19.004;2023-12-20T14:01:24;99431.91;;;5.33;100.00
59443;BME280;45247;47.466;19.004;2023-12-20T14:03:53;99430.28;;;5.30;100.00
59443;BME280;45247;47.466;19.004;2023-12-20T14:06:21;99425.47;;;5.21;100.00
59443;BME280;45247;47.466;19.004;2023-12-20T14:08:49;99431.75;;;5.17;100.00
59443;BME280;45247;47.466;19.004;2023-12-20T14:11:17;99433.94;;;5.07;100.00
59443;BME280;45247;47.466;19.004;2023-12-20T14:13:48;99452.16;;;5.09;100.00
59443;BME280;45247;47.466;19.004;2023-12-20T14:16:16;99451.44;;;5.05;100.00
59443;BME280;45247;47.466;19.004;2023-12-20T14:18:44;99447.22;;;5.02;100.00
59443;BME280;45247;47.466;19.004;2023-12-20T14:21:13;99452.56;;;4.99;100.00
59443;BME280;45247;47.466;19.004;2023-12-20T14:23:41;99435.19;;;4.98;100.00
59443;BME280;45247;47.466;19.004;2023-12-20T14:26:12;99460.19;;;4.85;100.00
59443;BME280;45247;47.466;19.004;2023-12-20T14:28:42;99436.13;;;4.77;100.00
59443;BME280;45247;47.466;19.004;2023-12-20T14:31:12;99457.81;;;4.79;100.00
59443;BME280;45247;47.466;19.004;2023-12-20T14:33:40;99451.41;;;4.86;100.00
59443;BME280;45247;47.466;19.004;2023-12-20T14:36:09;99440.94;;;4.86;100.00
59443;BME280;45247;47.466;19.004;2023-12-20T14:38:37;99462.16;;;4.80;100.00
59443;BME280;45247;47.466;19.004;2023-12-20T14:41:06;99457.16;;;4.74;100.00
59443;BME280;45247;47.466;19.004;2023-12-20T14:43:35;99461.63;;;4.72;100.00
59443;BME280;45247;47.466;19.004;2023-12-20T14:46:04;99465.19;;;4.69;100.00
59443;BME280;45247;47.466;19.004;2023-12-20T14:48:34;99463.50;;;4.68;100.00
59443;BME280;45247;47.466;19.004;2023-12-20T14:51:02;99455.75;;;4.67;100.00
59443;BME280;45247;47.466;19.004;2023-12-20T14:53:30;99475.97;;;4.62;100.00
59443;BME280;45247;47.466;19.004;2023-12-20T14:55:58;99475.44;;;4.53;100.00
59443;BME280;45247;47.466;19.004;2023-12-20T14:58:27;99476.34;;;4.52;100.00
59443;BME280;45247;47.466;19.004;2023-12-20T15:00:56;99476.25;;;4.56;100.00
59443;BME280;45247;47.466;19.004;2023-12-20T15:03:24;99500.72;;;4.53;100.00
59443;BME280;45247;47.466;19.004;2023-12-20T15:05:53;99493.69;;;4.55;100.00
59443;BME280;45247;47.466;19.004;2023-12-20T15:08:24;99505.53;;;4.64;100.00
59443;BME280;45247;47.466;19.004;2023-12-20T15:10:52;99485.53;;;4.63;100.00
59443;BME280;45247;47.466;19.004;2023-12-20T15:13:21;99502.81;;;4.67;100.00
59443;BME280;45247;47.466;19.004;2023-12-20T15:15:49;99501.91;;;4.66;100.00
59443;BME280;45247;47.466;19.004;2023-12-20T15:18:17;99487.13;;;4.67;100.00
59443;BME280;45247;47.466;19.004;2023-12-20T15:20:45;99507.22;;;4.65;100.00
59443;BME280;45247;47.466;19.004;2023-12-20T15:23:16;99510.56;;;4.68;100.00
59443;BME280;45247;47.466;19.004;2023-12-20T15:25:44;99510.09;;;4.59;100.00
59443;BME280;45247;47.466;19.004;2023-12-20T15:28:12;99506.75;;;4.55;100.00
59443;BME280;45247;47.466;19.004;2023-12-20T15:30:40;99516.09;;;4.61;100.00
59443;BME280;45247;47.466;19.004;2023-12-20T15:33:08;99525.78;;;4.59;100.00
59443;BME280;45247;47.466;19.004;2023-12-20T15:35:37;99521.59;;;4.55;100.00
59443;BME280;45247;47.466;19.004;2023-12-20T15:38:07;99522.38;;;4.57;100.00
59443;BME280;45247;47.466;19.004;2023-12-20T15:40:37;99524.91;;;4.58;100.00
59443;BME280;45247;47.466;19.004;2023-12-20T15:43:06;99531.06;;;4.57;100.00
59443;BME280;45247;47.466;19.004;2023-12-20T15:45:34;99529.44;;;4.55;100.00
59443;BME280;45247;47.466;19.004;2023-12-20T15:48:03;99514.78;;;4.50;100.00
59443;BME280;45247;47.466;19.004;2023-12-20T15:50:31;99536.47;;;4.52;100.00
59443;BME280;45247;47.466;19.004;2023-12-20T15:52:59;99536.59;;;4.49;100.00
59443;BME280;45247;47.466;19.004;2023-12-20T15:55:28;99534.66;;;4.55;100.00
59443;BME280;45247;47.466;19.004;2023-12-20T15:57:58;99527.66;;;4.55;100.00
59443;BME280;45247;47.466;19.004;2023-12-20T16:00:26;99552.81;;;4.58;100.00
59443;BME280;45247;47.466;19.004;2023-12-20T16:02:54;99548.28;;;4.63;100.00
59443;BME280;45247;47.466;19.004;2023-12-20T16:05:22;99554.34;;;4.63;100.00
59443;BME280;45247;47.466;19.004;2023-12-20T16:07:51;99558.72;;;4.63;100.00
59443;BME280;45247;47.466;19.004;2023-12-20T16:10:19;99544.13;;;4.57;100.00
59443;BME280;45247;47.466;19.004;2023-12-20T16:12:47;99554.47;;;4.60;100.00
59443;BME280;45247;47.466;19.004;2023-12-20T16:15:17;99555.50;;;4.56;100.00
59443;BME280;45247;47.466;19.004;2023-12-20T16:17:45;99552.03;;;4.56;100.00
59443;BME280;45247;47.466;19.004;2023-12-20T16:20:14;99549.53;;;4.52;100.00
59443;BME280;45247;47.466;19.004;2023-12-20T16:22:42;99559.34;;;4.47;100.00
59443;BME280;45247;47.466;19.004;2023-12-20T16:25:10;99560.19;;;4.48;100.00
59443;BME280;45247;47.466;19.004;2023-12-20T16:27:38;99551.22;;;4.53;100.00
59443;BME280;45247;47.466;19.004;2023-12-20T16:30:07;99554.75;;;4.52;100.00
59443;BME280;45247;47.466;19.004;2023-12-20T16:32:37;99550.66;;;4.47;100.00
59443;BME280;45247;47.466;19.004;2023-12-20T16:35:05;99542.91;;;4.44;100.00
59443;BME280;45247;47.466;19.004;2023-12-20T16:37:34;99540.38;;;4.42;100.00
59443;BME280;45247;47.466;19.004;2023-12-20T16:40:05;99552.03;;;4.34;100.00
59443;BME280;45247;47.466;19.004;2023-12-20T16:42:34;99567.16;;;4.25;100.00
59443;BME280;45247;47.466;19.004;2023-12-20T16:45:02;99565.66;;;4.20;100.00
59443;BME280;45247;47.466;19.004;2023-12-20T16:47:31;99572.94;;;4.12;100.00
59443;BME280;45247;47.466;19.004;2023-12-20T16:50:01;99573.16;;;4.06;100.00
59443;BME280;45247;47.466;19.004;2023-12-20T16:52:32;99592.44;;;4.01;100.00
59443;BME280;45247;47.466;19.004;2023-12-20T16:55:01;99586.56;;;3.96;100.00
59443;BME280;45247;47.466;19.004;2023-12-20T16:57:29;99586.81;;;3.90;100.00
59443;BME280;45247;47.466;19.004;2023-12-20T16:59:57;99584.91;;;3.94;100.00
59443;BME280;45247;47.466;19.004;2023-12-20T17:02:25;99600.69;;;3.91;100.00
59443;BME280;45247;47.466;19.004;2023-12-20T17:04:53;99586.81;;;3.90;100.00
59443;BME280;45247;47.466;19.004;2023-12-20T17:07:23;99600.97;;;3.83;100.00
59443;BME280;45247;47.466;19.004;2023-12-20T17:09:51;99596.78;;;3.79;100.00
59443;BME280;45247;47.466;19.004;2023-12-20T17:12:19;99604.44;;;3.84;100.00
59443;BME280;45247;47.466;19.004;2023-12-20T17:14:50;99605.53;;;3.78;100.00
59443;BME280;45247;47.466;19.004;2023-12-20T17:17:18;99603.59;;;3.83;100.00
59443;BME280;45247;47.466;19.004;2023-12-20T17:19:46;99603.75;;;4.02;100.00
59443;BME280;45247;47.466;19.004;2023-12-20T17:22:14;99607.00;;;4.09;100.00
59443;BME280;45247;47.466;19.004;2023-12-20T17:24:44;99615.97;;;4.25;100.00
59443;BME280;45247;47.466;19.004;2023-12-20T17:27:12;99603.75;;;4.47;100.00
59443;BME280;45247;47.466;19.004;2023-12-20T17:29:40;99607.78;;;4.56;100.00
59443;BME280;45247;47.466;19.004;2023-12-20T17:32:08;99600.28;;;4.69;100.00
59443;BME280;45247;47.466;19.004;2023-12-20T17:34:36;99618.72;;;4.66;100.00
59443;BME280;45247;47.466;19.004;2023-12-20T17:37:04;99618.53;;;4.48;100.00
59443;BME280;45247;47.466;19.004;2023-12-20T17:39:32;99632.03;;;4.38;100.00
59443;BME280;45247;47.466;19.004;2023-12-20T17:42:03;99632.84;;;4.16;100.00
59443;BME280;45247;47.466;19.004;2023-12-20T17:44:31;99643.09;;;3.97;100.00
59443;BME280;45247;47.466;19.004;2023-12-20T17:46:59;99640.47;;;3.74;100.00
59443;BME280;45247;47.466;19.004;2023-12-20T17:49:27;99656.88;;;3.53;100.00
59443;BME280;45247;47.466;19.004;2023-12-20T17:51:58;99648.78;;;3.35;100.00
59443;BME280;45247;47.466;19.004;2023-12-20T17:54:26;99648.00;;;3.07;100.00
59443;BME280;45247;47.466;19.004;2023-12-20T17:56:56;99640.09;;;2.83;100.00
59443;BME280;45247;47.466;19.004;2023-12-20T17:59:27;99638.16;;;2.62;100.00
59443;BME280;45247;47.466;19.004;2023-12-20T18:01:56;99643.81;;;2.46;100.00
59443;BME280;45247;47.466;19.004;2023-12-20T18:04:24;99648.88;;;2.23;100.00
59443;BME280;45247;47.466;19.004;2023-12-20T18:06:54;99649.31;;;2.08;100.00
59443;BME280;45247;47.466;19.004;2023-12-20T18:09:24;99651.34;;;1.98;100.00
59443;BME280;45247;47.466;19.004;2023-12-20T18:11:53;99666.25;;;1.93;100.00
59443;BME280;45247;47.466;19.004;2023-12-20T18:14:23;99663.06;;;1.82;100.00
59443;BME280;45247;47.466;19.004;2023-12-20T18:16:54;99656.44;;;1.71;100.00
59443;BME280;45247;47.466;19.004;2023-12-20T18:19:23;99647.88;;;1.66;100.00
59443;BME280;45247;47.466;19.004;2023-12-20T18:21:53;99652.41;;;1.58;100.00
59443;BME280;45247;47.466;19.004;2023-12-20T18:24:23;99654.34;;;1.52;100.00
59443;BME280;45247;47.466;19.004;2023-12-20T18:26:56;99656.28;;;1.43;100.00
59443;BME280;45247;47.466;19.004;2023-12-20T18:29:25;99671.00;;;1.44;100.00
59443;BME280;45247;47.466;19.004;2023-12-20T18:31:56;99660.28;;;1.57;100.00
59443;BME280;45247;47.466;19.004;2023-12-20T18:34:26;99649.81;;;1.58;100.00
59443;BME280;45247;47.466;19.004;2023-12-20T18:36:57;99653.44;;;1.53;100.00
59443;BME280;45247;47.466;19.004;2023-12-20T18:39:27;99646.69;;;1.45;100.00
59443;BME280;45247;47.466;19.004;2023-12-20T18:41:56;99666.88;;;1.37;100.00
59443;BME280;45247;47.466;19.004;2023-12-20T18:44:26;99659.41;;;1.23;100.00
59443;BME280;45247;47.466;19.004;2023-12-20T18:46:57;99662.41;;;1.07;100.00
59443;BME280;45247;47.466;19.004;2023-12-20T18:49:28;99664.44;;;0.95;100.00
59443;BME280;45247;47.466;19.004;2023-12-20T18:51:58;99662.94;;;0.85;100.00
59443;BME280;45247;47.466;19.004;2023-12-20T18:54:30;99670.16;;;0.74;100.00
59443;BME280;45247;47.466;19.004;2023-12-20T18:57:00;99662.56;;;0.65;100.00
59443;BME280;45247;47.466;19.004;2023-12-20T18:59:30;99661.91;;;0.55;100.00
59443;BME280;45247;47.466;19.004;2023-12-20T19:02:02;99666.50;;;0.44;100.00
59443;BME280;45247;47.466;19.004;2023-12-20T19:04:32;99688.22;;;0.38;100.00
59443;BME280;45247;47.466;19.004;2023-12-20T19:07:02;99680.53;;;0.35;100.00
59443;BME280;45247;47.466;19.004;2023-12-20T19:09:31;99674.66;;;0.27;100.00
59443;BME280;45247;47.466;19.004;2023-12-20T19:12:01;99670.41;;;0.23;100.00
59443;BME280;45247;47.466;19.004;2023-12-20T19:14:31;99677.50;;;0.15;100.00
59443;BME280;45247;47.466;19.004;2023-12-20T19:17:03;99689.72;;;0.10;100.00
59443;BME280;45247;47.466;19.004;2023-12-20T19:19:33;99690.72;;;0.03;100.00
59443;BME280;45247;47.466;19.004;2023-12-20T19:22:04;99693.28;;;0.04;100.00
59443;BME280;45247;47.466;19.004;2023-12-20T19:24:34;99691.69;;;-0.03;100.00
59443;BME280;45247;47.466;19.004;2023-12-20T19:27:04;99698.81;;;-0.14;100.00
59443;BME280;45247;47.466;19.004;2023-12-20T19:29:34;99706.75;;;-0.20;100.00
59443;BME280;45247;47.466;19.004;2023-12-20T19:32:07;99702.59;;;-0.31;100.00
59443;BME280;45247;47.466;19.004;2023-12-20T19:34:37;99712.19;;;-0.34;100.00
59443;BME280;45247;47.466;19.004;2023-12-20T19:37:07;99708.56;;;-0.27;100.00
59443;BME280;45247;47.466;19.004;2023-12-20T19:39:37;99715.31;;;-0.17;100.00
59443;BME280;45247;47.466;19.004;2023-12-20T19:42:07;99696.66;;;0.09;100.00
59443;BME280;45247;47.466;19.004;2023-12-20T19:44:37;99701.63;;;0.60;100.00
59443;BME280;45247;47.466;19.004;2023-12-20T19:47:10;99706.25;;;0.86;100.00
59443;BME280;45247;47.466;19.004;2023-12-20T19:49:40;99702.53;;;0.96;100.00
59443;BME280;45247;47.466;19.004;2023-12-20T19:52:12;99706.59;;;1.07;100.00
59443;BME280;45247;47.466;19.004;2023-12-20T19:54:42;99707.38;;;1.12;100.00
59443;BME280;45247;47.466;19.004;2023-12-20T19:57:13;99698.63;;;1.14;100.00
59443;BME280;45247;47.466;19.004;2023-12-20T19:59:43;99708.91;;;1.19;100.00
59443;BME280;45247;47.466;19.004;2023-12-20T20:02:16;99699.41;;;1.18;100.00
59443;BME280;45247;47.466;19.004;2023-12-20T20:04:47;99709.84;;;1.16;100.00
59443;BME280;45247;47.466;19.004;2023-12-20T20:07:17;99690.75;;;1.17;100.00
59443;BME280;45247;47.466;19.004;2023-12-20T20:09:51;99693.19;;;1.25;100.00
59443;BME280;45247;47.466;19.004;2023-12-20T20:12:21;99696.47;;;1.32;100.00
59443;BME280;45247;47.466;19.004;2023-12-20T20:14:52;99699.78;;;1.38;100.00
59443;BME280;45247;47.466;19.004;2023-12-20T20:17:26;99699.53;;;1.47;100.00
59443;BME280;45247;47.466;19.004;2023-12-20T20:19:56;99700.19;;;1.56;100.00
59443;BME280;45247;47.466;19.004;2023-12-20T20:22:27;99703.56;;;1.59;100.00
59443;BME280;45247;47.466;19.004;2023-12-20T20:24:58;99710.63;;;1.54;100.00
59443;BME280;45247;47.466;19.004;2023-12-20T20:27:29;99715.03;;;1.52;100.00
59443;BME280;45247;47.466;19.004;2023-12-20T20:29:59;99708.03;;;1.54;100.00
59443;BME280;45247;47.466;19.004;2023-12-20T20:32:31;99711.41;;;1.58;100.00
59443;BME280;45247;47.466;19.004;2023-12-20T20:35:03;99717.50;;;1.57;100.00
59443;BME280;45247;47.466;19.004;2023-12-20T20:37:35;99710.56;;;1.57;100.00
59443;BME280;45247;47.466;19.004;2023-12-20T20:40:07;99715.75;;;1.57;100.00
59443;BME280;45247;47.466;19.004;2023-12-20T20:42:39;99705.47;;;1.53;100.00
59443;BME280;45247;47.466;19.004;2023-12-20T20:45:10;99715.88;;;1.53;100.00
59443;BME280;45247;47.466;19.004;2023-12-20T20:47:42;99707.16;;;1.55;100.00
59443;BME280;45247;47.466;19.004;2023-12-20T20:50:13;99704.44;;;1.58;100.00
59443;BME280;45247;47.466;19.004;2023-12-20T20:52:44;99704.34;;;1.63;100.00
59443;BME280;45247;47.466;19.004;2023-12-20T20:55:15;99703.34;;;1.67;100.00
59443;BME280;45247;47.466;19.004;2023-12-20T20:57:45;99700.59;;;1.73;100.00
59443;BME280;45247;47.466;19.004;2023-12-20T21:00:16;99702.16;;;1.80;100.00
59443;BME280;45247;47.466;19.004;2023-12-20T21:02:46;99696.00;;;1.83;100.00
59443;BME280;45247;47.466;19.004;2023-12-20T21:05:14;99707.97;;;1.88;100.00
59443;BME280;45247;47.466;19.004;2023-12-20T21:07:43;99695.75;;;1.92;100.00
59443;BME280;45247;47.466;19.004;2023-12-20T21:10:11;99691.06;;;2.05;100.00
59443;BME280;45247;47.466;19.004;2023-12-20T21:12:40;99693.84;;;1.97;100.00
59443;BME280;45247;47.466;19.004;2023-12-20T21:15:08;99704.19;;;2.02;100.00
59443;BME280;45247;47.466;19.004;2023-12-20T21:17:40;99701.78;;;1.92;100.00
59443;BME280;45247;47.466;19.004;2023-12-20T21:20:13;99703.78;;;1.84;100.00
59443;BME280;45247;47.466;19.004;2023-12-20T21:22:41;99703.84;;;1.81;100.00
59443;BME280;45247;47.466;19.004;2023-12-20T21:25:09;99705.81;;;1.73;100.00
59443;BME280;45247;47.466;19.004;2023-12-20T21:27:37;99709.47;;;1.66;100.00
59443;BME280;45247;47.466;19.004;2023-12-20T21:30:07;99710.41;;;1.63;100.00
59443;BME280;45247;47.466;19.004;2023-12-20T21:32:37;99704.44;;;1.60;100.00
59443;BME280;45247;47.466;19.004;2023-12-20T21:35:06;99695.00;;;1.54;100.00
59443;BME280;45247;47.466;19.004;2023-12-20T21:37:36;99693.50;;;1.45;100.00
59443;BME280;45247;47.466;19.004;2023-12-20T21:40:06;99695.31;;;1.43;100.00
59443;BME280;45247;47.466;19.004;2023-12-20T21:42:34;99698.06;;;1.37;100.00
59443;BME280;45247;47.466;19.004;2023-12-20T21:45:03;99700.88;;;1.30;100.00
59443;BME280;45247;47.466;19.004;2023-12-20T21:47:31;99694.22;;;1.18;100.00
59443;BME280;45247;47.466;19.004;2023-12-20T21:50:00;99705.84;;;1.02;100.00
59443;BME280;45247;47.466;19.004;2023-12-20T21:52:28;99699.19;;;0.91;100.00
59443;BME280;45247;47.466;19.004;2023-12-20T21:54:58;99707.38;;;0.74;100.00
59443;BME280;45247;47.466;19.004;2023-12-20T21:57:26;99711.28;;;0.54;100.00
59443;BME280;45247;47.466;19.004;2023-12-20T21:59:54;99713.53;;;0.30;100.00
59443;BME280;45247;47.466;19.004;2023-12-20T22:02:22;99718.94;;;0.19;100.00
59443;BME280;45247;47.466;19.004;2023-12-20T22:04:50;99714.97;;;0.02;100.00
59443;BME280;45247;47.466;19.004;2023-12-20T22:07:18;99715.97;;;-0.06;100.00
59443;BME280;45247;47.466;19.004;2023-12-20T22:09:47;99712.75;;;-0.18;100.00
59443;BME280;45247;47.466;19.004;2023-12-20T22:12:16;99712.97;;;-0.29;100.00
59443;BME280;45247;47.466;19.004;2023-12-20T22:14:44;99705.56;;;-0.51;100.00
59443;BME280;45247;47.466;19.004;2023-12-20T22:17:12;99700.59;;;-0.63;100.00
59443;BME280;45247;47.466;19.004;2023-12-20T22:19:41;99692.13;;;-0.74;100.00
59443;BME280;45247;47.466;19.004;2023-12-20T22:22:09;99693.78;;;-0.70;100.00
59443;BME280;45247;47.466;19.004;2023-12-20T22:24:37;99688.59;;;-0.70;100.00
59443;BME280;45247;47.466;19.004;2023-12-20T22:27:05;99690.22;;;-0.63;100.00
59443;BME280;45247;47.466;19.004;2023-12-20T22:29:35;99696.16;;;-0.58;100.00
59443;BME280;45247;47.466;19.004;2023-12-20T22:32:04;99704.72;;;-0.53;100.00
59443;BME280;45247;47.466;19.004;2023-12-20T22:34:34;99705.66;;;-0.57;100.00
59443;BME280;45247;47.466;19.004;2023-12-20T22:37:03;99701.34;;;-0.58;100.00
59443;BME280;45247;47.466;19.004;2023-12-20T22:39:31;99697.88;;;-0.57;100.00
59443;BME280;45247;47.466;19.004;2023-12-20T22:41:59;99687.50;;;-0.55;100.00
59443;BME280;45247;47.466;19.004;2023-12-20T22:44:27;99699.53;;;-0.51;100.00
59443;BME280;45247;47.466;19.004;2023-12-20T22:46:57;99698.06;;;-0.19;100.00
59443;BME280;45247;47.466;19.004;2023-12-20T22:49:25;99690.75;;;-0.01;100.00
59443;BME280;45247;47.466;19.004;2023-12-20T22:51:53;99681.78;;;0.16;100.00
59443;BME280;45247;47.466;19.004;2023-12-20T22:54:21;99682.38;;;0.30;100.00
59443;BME280;45247;47.466;19.004;2023-12-20T22:56:49;99684.78;;;0.39;100.00
59443;BME280;45247;47.466;19.004;2023-12-20T22:59:21;99684.97;;;0.30;100.00
59443;BME280;45247;47.466;19.004;2023-12-20T23:01:49;99683.38;;;0.23;100.00
59443;BME280;45247;47.466;19.004;2023-12-20T23:04:18;99683.50;;;0.17;100.00
59443;BME280;45247;47.466;19.004;2023-12-20T23:06:47;99680.13;;;0.13;100.00
59443;BME280;45247;47.466;19.004;2023-12-20T23:09:15;99685.34;;;0.12;100.00
59443;BME280;45247;47.466;19.004;2023-12-20T23:11:44;99687.47;;;0.33;100.00
59443;BME280;45247;47.466;19.004;2023-12-20T23:14:16;99678.59;;;0.45;100.00
59443;BME280;45247;47.466;19.004;2023-12-20T23:16:44;99674.13;;;0.50;100.00
59443;BME280;45247;47.466;19.004;2023-12-20T23:19:13;99658.38;;;0.58;100.00
59443;BME280;45247;47.466;19.004;2023-12-20T23:27:10;99648.81;;;1.31;100.00
59443;BME280;45247;47.466;19.004;2023-12-20T23:29:38;99645.06;;;1.74;100.00
59443;BME280;45247;47.466;19.004;2023-12-20T23:32:06;99651.75;;;1.84;100.00
59443;BME280;45247;47.466;19.004;2023-12-20T23:34:34;99652.47;;;1.88;100.00
59443;BME280;45247;47.466;19.004;2023-12-20T23:37:03;99651.22;;;2.03;100.00
59443;BME280;45247;47.466;19.004;2023-12-20T23:39:31;99635.31;;;2.12;100.00
59443;BME280;45247;47.466;19.004;2023-12-20T23:41:59;99650.66;;;2.21;100.00
59443;BME280;45247;47.466;19.004;2023-12-20T23:44:29;99652.19;;;2.28;100.00
59443;BME280;45247;47.466;19.004;2023-12-20T23:46:57;99638.22;;;2.31;100.00
59443;BME280;45247;47.466;19.004;2023-12-20T23:49:25;99641.59;;;2.34;100.00
59443;BME280;45247;47.466;19.004;2023-12-20T23:51:53;99648.56;;;2.34;100.00
59443;BME280;45247;47.466;19.004;2023-12-20T23:54:21;99643.81;;;2.46;100.00
59443;BME280;45247;47.466;19.004;2023-12-20T23:56:50;99642.75;;;2.54;100.00
59443;BME280;45247;47.466;19.004;2023-12-20T23:59:18;99640.09;;;2.55;100.00
